« Back
NWS Peachtree City, Ga » Text Product » AHN Terminal Aerodrome Forecast


Printer-friendly Version
Current Version              Previous Versions:   1  2  3  4  5  6  7  8  9  

Terminal Aerodrome Forecast

042
FTUS42 KFFC 191100
TAFAHN
TAF
KAHN 191120Z 1912/2012 04010G20KT 3SM -RA BKN006
     FM191800 04014G24KT 6SM -RA BKN015
     FM200100 05012KT P6SM BKN020=



USA.gov is the U.S. government's official web portal to all federal, state and local government web resources and services.